createdAt,value
2019-05-02T00:01:45.421Z,9.20
2019-05-02T00:04:20.102Z,9.20
2019-05-02T00:07:09.530Z,9.20
2019-05-02T00:09:47.287Z,9.20
2019-05-02T00:12:15.925Z,9.10
2019-05-02T00:14:47.788Z,9.10
2019-05-02T00:17:20.455Z,9.10
2019-05-02T00:19:51.354Z,9.10
2019-05-02T00:22:24.966Z,9.00
2019-05-02T00:24:54.798Z,9.10
2019-05-02T00:27:24.632Z,9.00
2019-05-02T00:29:58.779Z,9.00
2019-05-02T00:32:26.920Z,9.00
2019-05-02T00:34:57.047Z,9.00
2019-05-02T00:37:26.889Z,8.90
2019-05-02T00:39:59.063Z,8.90
2019-05-02T00:42:28.948Z,8.80
2019-05-02T00:44:58.765Z,8.80
2019-05-02T00:47:36.253Z,8.80
2019-05-02T00:50:11.406Z,8.80
2019-05-02T00:52:44.610Z,8.80
2019-05-02T00:55:15.547Z,8.80
2019-05-02T00:57:55.662Z,8.80
2019-05-02T01:00:23.271Z,8.80
2019-05-02T01:02:57.390Z,8.80
2019-05-02T01:05:27.747Z,8.80
2019-05-02T01:08:01.057Z,8.70
2019-05-02T01:10:33.818Z,8.70
2019-05-02T01:13:04.226Z,8.70
2019-05-02T01:15:38.971Z,8.70
2019-05-02T01:18:16.186Z,8.70
2019-05-02T01:20:58.179Z,8.80
2019-05-02T01:23:29.548Z,8.70
2019-05-02T01:26:00.389Z,8.70
2019-05-02T01:28:31.878Z,8.70
2019-05-02T01:31:07.504Z,8.70
2019-05-02T01:33:47.315Z,8.70
2019-05-02T01:36:25.058Z,8.70
2019-05-02T01:38:55.878Z,8.70
2019-05-02T01:41:29.180Z,8.70
2019-05-02T01:44:00.160Z,8.70
2019-05-02T01:46:30.222Z,8.70
2019-05-02T01:49:01.630Z,8.70
2019-05-02T01:51:36.636Z,8.60
2019-05-02T01:54:10.201Z,8.60
2019-05-02T01:56:40.504Z,8.60
2019-05-02T01:59:14.087Z,8.70
2019-05-02T02:01:45.553Z,8.70
2019-05-02T02:04:21.027Z,8.70
2019-05-02T02:06:53.735Z,8.70
2019-05-02T02:09:30.115Z,8.60
2019-05-02T02:12:05.061Z,8.60
2019-05-02T02:14:34.529Z,8.60
2019-05-02T02:17:10.229Z,8.60
2019-05-02T02:19:43.567Z,8.60
2019-05-02T02:22:19.544Z,8.60
2019-05-02T02:24:55.949Z,8.60
2019-05-02T02:27:25.706Z,8.60
2019-05-02T02:29:58.407Z,8.60
2019-05-02T02:32:29.013Z,8.60
2019-05-02T02:35:03.713Z,8.60
2019-05-02T02:37:31.225Z,8.60
2019-05-02T02:40:01.700Z,8.60
2019-05-02T02:42:34.203Z,8.60
2019-05-02T02:45:12.877Z,8.60
2019-05-02T02:47:39.324Z,8.60
2019-05-02T02:50:09.368Z,8.60
2019-05-02T02:52:46.849Z,8.50
2019-05-02T02:55:21.930Z,8.50
2019-05-02T02:58:04.718Z,8.50
2019-05-02T03:00:32.668Z,8.50
2019-05-02T03:03:03.993Z,8.40
2019-05-02T03:05:33.825Z,8.40
2019-05-02T03:08:07.244Z,8.40
2019-05-02T03:10:45.050Z,8.30
2019-05-02T03:13:25.908Z,8.30
2019-05-02T03:16:14.151Z,8.30
2019-05-02T03:18:44.576Z,8.30
2019-05-02T03:21:20.846Z,8.30
2019-05-02T03:24:02.264Z,8.30
2019-05-02T03:26:29.377Z,8.30
2019-05-02T03:29:03.358Z,8.30
2019-05-02T03:31:35.044Z,8.30
2019-05-02T03:34:05.440Z,8.20
2019-05-02T03:36:37.235Z,8.20
2019-05-02T03:39:17.400Z,8.20
2019-05-02T03:41:47.484Z,8.20
2019-05-02T03:44:26.101Z,8.10
2019-05-02T03:46:54.159Z,8.10
2019-05-02T03:49:22.776Z,8.10
2019-05-02T03:52:03.128Z,8.00
2019-05-02T03:54:28.717Z,8.00
2019-05-02T03:57:08.595Z,8.00
2019-05-02T03:59:41.885Z,7.90
2019-05-02T04:02:14.054Z,7.90
2019-05-02T04:04:54.482Z,7.90
2019-05-02T04:07:21.415Z,7.90
2019-05-02T04:09:51.870Z,7.90
2019-05-02T04:12:22.045Z,8.00
2019-05-02T04:14:55.985Z,8.00
2019-05-02T04:17:29.075Z,8.00
2019-05-02T04:20:09.251Z,8.00
2019-05-02T04:22:48.891Z,8.00
2019-05-02T04:25:36.029Z,8.00
2019-05-02T04:28:11.928Z,8.00
2019-05-02T04:37:48.705Z,7.90
2019-05-02T04:43:33.077Z,7.90
2019-05-02T04:49:12.510Z,7.90
2019-05-02T04:54:38.236Z,8.00
2019-05-02T04:57:11.763Z,8.00
2019-05-02T04:59:50.015Z,8.00
2019-05-02T05:02:29.721Z,8.10
2019-05-02T05:04:55.548Z,8.10
2019-05-02T05:07:25.531Z,8.10
2019-05-02T05:10:03.030Z,8.10
2019-05-02T05:12:38.038Z,8.00
2019-05-02T05:15:07.919Z,8.10
2019-05-02T05:17:43.617Z,8.10
2019-05-02T05:20:18.309Z,8.00
2019-05-02T05:22:49.723Z,8.00
2019-05-02T05:25:34.454Z,8.10
2019-05-02T05:28:09.020Z,8.10
2019-05-02T05:30:45.187Z,8.10
2019-05-02T05:33:18.278Z,8.00
2019-05-02T05:35:52.814Z,8.00
2019-05-02T05:38:32.712Z,8.00
2019-05-02T05:41:08.907Z,8.10
2019-05-02T05:43:51.826Z,8.10
2019-05-02T05:46:33.233Z,8.10
2019-05-02T05:49:00.469Z,8.10
2019-05-02T05:54:59.760Z,8.10
2019-05-02T06:03:43.850Z,8.10
2019-05-02T06:12:12.750Z,8.10
2019-05-02T06:14:56.414Z,8.10
2019-05-02T06:26:54.197Z,8.00
2019-05-02T06:29:33.475Z,8.10
2019-05-02T06:37:45.334Z,8.10
2019-05-02T06:40:20.197Z,8.10
2019-05-02T06:43:09.902Z,8.20
2019-05-02T06:45:42.467Z,8.10
2019-05-02T06:54:00.925Z,8.10
2019-05-02T06:56:30.721Z,8.20
2019-05-02T06:59:03.388Z,8.20
2019-05-02T07:01:33.459Z,8.20
2019-05-02T07:04:07.414Z,8.20
2019-05-02T07:06:55.998Z,8.30
2019-05-02T07:09:08.858Z,8.40
2019-05-02T07:11:40.838Z,8.40
2019-05-02T07:14:13.446Z,8.40
2019-05-02T07:16:44.816Z,8.40
2019-05-02T07:19:32.517Z,8.40
2019-05-02T07:22:04.377Z,8.50
2019-05-02T07:24:33.773Z,8.50
2019-05-02T07:27:06.265Z,8.60
2019-05-02T07:29:36.073Z,8.60
2019-05-02T07:32:06.419Z,8.60
2019-05-02T07:34:44.210Z,8.60
2019-05-02T07:37:12.588Z,8.60
2019-05-02T07:39:43.704Z,8.60
2019-05-02T07:42:14.165Z,8.70
2019-05-02T07:44:45.627Z,8.70
2019-05-02T07:47:15.424Z,8.70
2019-05-02T07:49:45.248Z,8.70
2019-05-02T07:52:15.049Z,8.70
2019-05-02T07:54:44.907Z,8.80
2019-05-02T07:57:14.711Z,8.80
2019-05-02T07:59:44.522Z,8.90
2019-05-02T08:02:15.123Z,9.00
2019-05-02T08:04:45.218Z,9.10
2019-05-02T08:07:21.210Z,9.00
2019-05-02T08:09:52.692Z,9.10
2019-05-02T08:12:22.593Z,9.10
2019-05-02T08:14:52.397Z,9.10
2019-05-02T08:17:22.212Z,9.20
2019-05-02T08:19:53.339Z,9.20
2019-05-02T08:22:23.126Z,9.20
2019-05-02T08:24:52.963Z,9.20
2019-05-02T08:27:24.330Z,9.20
2019-05-02T08:29:54.204Z,9.20
2019-05-02T08:32:23.994Z,9.10
2019-05-02T08:34:53.808Z,9.10
2019-05-02T08:37:23.660Z,9.10
2019-05-02T08:39:53.459Z,9.10
2019-05-02T08:42:27.618Z,9.10
2019-05-02T08:44:56.414Z,9.20
2019-05-02T08:47:30.489Z,9.20
2019-05-02T08:50:00.636Z,9.20
2019-05-02T08:52:31.417Z,9.30
2019-05-02T08:55:04.387Z,9.30
2019-05-02T08:57:34.565Z,9.30
2019-05-02T09:00:06.200Z,9.40
2019-05-02T09:02:41.700Z,9.40
2019-05-02T09:05:07.846Z,9.50
2019-05-02T09:07:39.364Z,9.50
2019-05-02T09:10:09.418Z,9.60
2019-05-02T09:12:43.742Z,9.60
2019-05-02T09:15:11.886Z,9.60
2019-05-02T09:17:46.490Z,9.60
2019-05-02T09:20:16.606Z,9.60
2019-05-02T09:22:51.487Z,9.60
2019-05-02T09:25:18.232Z,9.50
2019-05-02T09:27:48.098Z,9.50
2019-05-02T09:30:22.847Z,9.50
2019-05-02T09:32:52.163Z,9.50
2019-05-02T09:35:25.394Z,9.70
2019-05-02T09:38:08.426Z,9.80
2019-05-02T09:43:39.178Z,9.90
2019-05-02T09:46:32.506Z,9.90
2019-05-02T09:52:03.346Z,10.10
2019-05-02T09:54:46.454Z,10.20
2019-05-02T09:57:16.178Z,10.10
2019-05-02T09:59:50.502Z,10.10
2019-05-02T10:02:22.221Z,10.00
2019-05-02T10:04:52.403Z,10.00
2019-05-02T10:13:25.370Z,10.10
2019-05-02T10:43:59.334Z,10.10
2019-05-02T10:55:26.998Z,9.70
2019-05-02T11:42:12.470Z,10.00
2019-05-02T11:44:52.429Z,9.90
2019-05-02T12:32:54.432Z,10.00
2019-05-02T13:07:18.020Z,9.70
2019-05-02T13:19:36.822Z,9.90
2019-05-02T13:52:28.383Z,10.10
2019-05-02T13:55:20.325Z,10.10
2019-05-02T13:57:56.426Z,10.00
2019-05-02T14:00:36.097Z,10.00
2019-05-02T14:13:31.571Z,10.00
2019-05-02T14:16:06.939Z,9.90
2019-05-02T14:19:12.437Z,9.90
2019-05-02T14:21:54.228Z,9.80
2019-05-02T15:50:00.017Z,10.30
2019-05-02T15:52:43.819Z,10.30
2019-05-02T15:58:27.992Z,10.30
2019-05-02T16:07:11.958Z,10.00
2019-05-02T16:10:21.685Z,10.00
2019-05-02T16:21:52.257Z,10.00
2019-05-02T16:24:34.955Z,10.00
2019-05-02T16:27:08.798Z,9.90
2019-05-02T16:29:45.973Z,9.90
2019-05-02T16:32:31.022Z,9.80
2019-05-02T16:35:37.508Z,9.70
2019-05-02T16:38:34.794Z,9.70
2019-05-02T16:41:12.039Z,9.60
2019-05-02T16:46:54.334Z,9.50
2019-05-02T16:49:35.839Z,9.50
2019-05-02T16:52:24.602Z,9.50
2019-05-02T16:55:04.972Z,9.40
2019-05-02T16:57:42.424Z,9.40
2019-05-02T17:00:23.186Z,9.40
2019-05-02T17:02:54.672Z,9.40
2019-05-02T17:05:39.327Z,9.40
2019-05-02T17:08:37.760Z,9.40
2019-05-02T17:11:27.707Z,9.40
2019-05-02T17:14:12.104Z,9.40
2019-05-02T17:17:07.821Z,9.40
2019-05-02T17:28:49.545Z,9.20
2019-05-02T17:31:39.577Z,9.20
2019-05-02T17:34:14.944Z,9.10
2019-05-02T17:36:54.318Z,9.10
2019-05-02T17:39:46.115Z,9.10
2019-05-02T17:42:33.494Z,9.10
2019-05-02T17:48:19.865Z,9.00
2019-05-02T17:54:31.700Z,9.00
2019-05-02T17:57:18.720Z,9.00
2019-05-02T18:00:02.775Z,9.00
2019-05-02T18:05:39.249Z,8.90
2019-05-02T18:08:26.764Z,8.90
2019-05-02T18:11:20.064Z,8.90
2019-05-02T18:14:19.655Z,8.90
2019-05-02T18:16:51.022Z,8.80
2019-05-02T18:19:35.081Z,8.80
2019-05-02T18:25:31.184Z,8.70
2019-05-02T18:28:21.575Z,8.70
2019-05-02T18:30:57.043Z,8.60
2019-05-02T18:33:47.051Z,8.60
2019-05-02T18:36:23.708Z,8.50
2019-05-02T18:39:00.473Z,8.50
2019-05-02T18:41:42.703Z,8.50
2019-05-02T18:44:22.593Z,8.40
2019-05-02T18:47:06.293Z,8.40
2019-05-02T18:49:42.663Z,8.40
2019-05-02T18:52:23.752Z,8.40
2019-05-02T18:54:56.319Z,8.40
2019-05-02T18:57:35.459Z,8.40
2019-05-02T19:00:16.969Z,8.40
2019-05-02T19:02:56.426Z,8.40
2019-05-02T19:05:34.869Z,8.40
2019-05-02T19:08:13.183Z,8.40
2019-05-02T19:11:01.349Z,8.40
2019-05-02T19:13:25.073Z,8.40
2019-05-02T19:16:12.931Z,8.40
2019-05-02T19:18:54.431Z,8.40
2019-05-02T19:21:31.036Z,8.30
2019-05-02T19:24:03.959Z,8.30
2019-05-02T19:26:49.030Z,8.30
2019-05-02T19:29:21.448Z,8.30
2019-05-02T19:32:06.437Z,8.30
2019-05-02T19:34:50.081Z,8.30
2019-05-02T19:37:24.649Z,8.30
2019-05-02T19:40:01.147Z,8.30
2019-05-02T19:42:46.747Z,8.30
2019-05-02T19:45:33.711Z,8.30
2019-05-02T19:48:18.645Z,8.30
2019-05-02T19:53:51.692Z,8.30
2019-05-02T19:56:47.302Z,8.20
2019-05-02T20:02:07.484Z,8.10
2019-05-02T20:04:43.993Z,8.10
2019-05-02T20:07:27.403Z,8.00
2019-05-02T20:10:08.741Z,8.00
2019-05-02T20:12:52.824Z,7.90
2019-05-02T20:15:26.964Z,7.90
2019-05-02T20:18:04.960Z,7.90
2019-05-02T20:24:09.106Z,7.80
2019-05-02T20:26:54.517Z,7.80
2019-05-02T20:29:23.162Z,7.80
2019-05-02T20:32:04.869Z,7.80
2019-05-02T20:34:42.604Z,7.80
2019-05-02T20:37:22.242Z,7.80
2019-05-02T20:39:58.763Z,7.80
2019-05-02T20:45:57.922Z,7.80
2019-05-02T20:48:17.444Z,7.80
2019-05-02T20:53:52.618Z,7.80
2019-05-02T20:56:32.039Z,7.80
2019-05-02T20:59:17.597Z,7.80
2019-05-02T21:01:54.834Z,7.80
2019-05-02T21:04:31.729Z,7.80
2019-05-02T21:07:18.721Z,7.80
2019-05-02T21:09:54.953Z,7.80
2019-05-02T21:12:35.184Z,7.80
2019-05-02T21:15:26.412Z,7.80
2019-05-02T21:18:07.735Z,7.80
2019-05-02T21:20:42.706Z,7.80
2019-05-02T21:23:18.903Z,7.80
2019-05-02T21:26:06.212Z,7.70
2019-05-02T21:28:45.977Z,7.70
2019-05-02T21:31:36.391Z,7.70
2019-05-02T21:37:23.511Z,7.70
2019-05-02T21:39:54.953Z,7.70
2019-05-02T21:42:31.812Z,7.70
2019-05-02T21:45:13.023Z,7.70
2019-05-02T21:47:44.535Z,7.70
2019-05-02T21:50:33.934Z,7.70
2019-05-02T21:53:08.390Z,7.70
2019-05-02T21:55:47.426Z,7.70
2019-05-02T21:58:21.587Z,7.70
2019-05-02T22:01:03.870Z,7.70
2019-05-02T22:03:37.208Z,7.70
2019-05-02T22:06:12.218Z,7.70
2019-05-02T22:08:53.831Z,7.70
2019-05-02T22:11:27.640Z,7.70
2019-05-02T22:14:03.640Z,7.70
2019-05-02T22:16:36.935Z,7.70
2019-05-02T22:19:15.733Z,7.70
2019-05-02T22:21:47.761Z,7.70
2019-05-02T22:24:24.164Z,7.70
2019-05-02T22:27:04.519Z,7.70
2019-05-02T22:29:32.434Z,7.70
2019-05-02T22:32:12.342Z,7.70
2019-05-02T22:34:45.777Z,7.70
2019-05-02T22:37:17.273Z,7.70
2019-05-02T22:40:07.798Z,7.70
2019-05-02T22:42:41.759Z,7.70
2019-05-02T22:45:14.992Z,7.70
2019-05-02T22:47:46.800Z,7.70
2019-05-02T22:50:22.804Z,7.70
2019-05-02T22:52:57.372Z,7.70
2019-05-02T22:55:32.038Z,7.70
2019-05-02T22:58:04.443Z,7.70
2019-05-02T23:00:37.986Z,7.70
2019-05-02T23:03:13.810Z,7.70
2019-05-02T23:05:49.693Z,7.70
2019-05-02T23:08:27.383Z,7.70
2019-05-02T23:13:46.082Z,7.70
2019-05-02T23:16:38.175Z,7.70
2019-05-02T23:19:14.883Z,7.70
2019-05-02T23:21:46.303Z,7.70
2019-05-02T23:24:39.264Z,7.60
2019-05-02T23:27:24.681Z,7.60
2019-05-02T23:30:15.727Z,7.60
2019-05-02T23:32:51.706Z,7.60
2019-05-02T23:35:28.646Z,7.60
2019-05-02T23:38:06.847Z,7.60
2019-05-02T23:40:42.105Z,7.60
2019-05-02T23:43:21.841Z,7.60
2019-05-02T23:45:56.277Z,7.50
2019-05-02T23:48:35.509Z,7.50
2019-05-02T23:51:17.717Z,7.50
2019-05-02T23:53:55.491Z,7.50
2019-05-02T23:56:27.888Z,7.50
2019-05-02T23:59:02.560Z,7.50
